Time;durP1;ratioP1;P1;durP2;ratioP2;P2;SDS_P1;SDS_P2;PMS_P1;PMS_P2;Temp;Humidity;BMP_temperature;BMP_pressure;BME280_temperature;BME280_humidity;BME280_pressure;Samples;Min_cycle;Max_cycle;Signal;HPM_P1;HPM_P2
2022/01/03 00:01:27;;;;;;;2.87;1.70;;;;;;;8.70;97.21;95963.22;10535271;28;20202;-75
2022/01/03 00:06:27;;;;;;;2.57;1.77;;;;;;;8.65;97.31;95976.75;10543772;28;20210;-75
2022/01/03 00:11:27;;;;;;;4.70;1.80;;;;;;;8.91;95.72;95973.16;10543455;28;20229;-75
2022/01/03 00:16:30;;;;;;;4.67;2.07;;;;;;;8.81;95.92;95957.66;10542589;28;20777;-76
2022/01/03 00:21:44;;;;;;;4.43;2.00;;;;;;;9.00;94.78;95963.50;10543311;28;20209;-76
2022/01/03 00:26:48;;;;;;;4.90;2.00;;;;;;;9.14;93.04;95952.38;10542302;28;20304;-76
2022/01/03 00:31:49;;;;;;;3.07;1.67;;;;;;;9.07;93.99;95951.44;10507330;28;20210;-75
2022/01/03 00:36:51;;;;;;;12.67;1.90;;;;;;;9.21;93.77;95955.16;10507758;28;20288;-75
2022/01/03 00:41:52;;;;;;;4.13;1.67;;;;;;;9.25;92.34;95954.66;10507132;28;20577;-75
2022/01/03 00:46:53;;;;;;;2.50;1.60;;;;;;;9.31;92.18;95947.97;10523651;28;20197;-75
2022/01/03 00:51:53;;;;;;;5.17;1.60;;;;;;;9.37;91.01;95920.31;10523127;28;20234;-76
2022/01/03 00:57:02;;;;;;;7.30;1.67;;;;;;;9.24;90.94;95913.00;10541935;28;20193;-75
2022/01/03 01:02:04;;;;;;;3.43;1.50;;;;;;;9.34;89.81;95905.81;10506203;28;20645;-76
2022/01/03 01:07:05;;;;;;;3.17;1.47;;;;;;;9.35;89.83;95927.50;10506483;28;20608;-75
2022/01/03 01:12:06;;;;;;;3.73;1.67;;;;;;;9.44;89.04;95889.91;10522784;28;20211;-75
2022/01/03 01:17:11;;;;;;;5.63;1.70;;;;;;;9.09;95.15;95920.72;10521704;28;20218;-76
2022/01/03 01:22:12;;;;;;;5.40;2.27;;;;;;;9.15;96.07;95903.56;10522502;28;20174;-77
2022/01/03 01:32:34;;;;;;;3.93;1.70;;;;;;;8.40;100.00;95968.03;10522244;28;20268;-76
2022/01/03 01:37:38;;;;;;;6.57;1.90;;;;;;;8.00;100.00;95975.63;10521623;28;20250;-76
2022/01/03 01:42:45;;;;;;;4.27;1.83;;;;;;;7.68;100.00;96023.25;10521510;28;20628;-77
2022/01/03 01:47:48;;;;;;;3.77;1.17;;;;;;;6.71;100.00;96077.91;10504556;28;20228;-76
2022/01/03 01:52:50;;;;;;;1.73;0.80;;;;;;;6.12;100.00;96102.63;10521364;28;20306;-77
2022/01/03 01:58:03;;;;;;;0.93;0.67;;;;;;;5.48;100.00;96112.75;10504172;28;20653;-78
2022/01/03 02:03:16;;;;;;;1.80;0.50;;;;;;;5.24;100.00;96072.50;10518971;28;20640;-78
2022/01/03 02:08:27;;;;;;;0.90;0.57;;;;;;;5.43;100.00;96063.81;10504910;28;20191;-80
2022/01/03 02:13:29;;;;;;;0.73;0.50;;;;;;;5.42;100.00;96063.97;10519770;28;20215;-80
2022/01/03 02:18:31;;;;;;;1.50;0.50;;;;;;;5.41;100.00;96011.22;10503705;28;20187;-79
2022/01/03 02:23:33;;;;;;;0.73;0.60;;;;;;;5.46;100.00;96000.41;10503320;28;20197;-79
2022/01/03 02:28:34;;;;;;;1.53;0.50;;;;;;;5.45;100.00;95986.59;10519587;28;20182;-79
2022/01/03 02:33:36;;;;;;;2.10;0.77;;;;;;;5.45;100.00;95980.56;10519406;28;20276;-78
2022/01/03 02:38:38;;;;;;;0.40;0.40;;;;;;;5.36;100.00;95982.25;10519283;28;20223;-79
2022/01/03 02:43:39;;;;;;;1.53;1.40;;;;;;;5.47;100.00;95989.06;10516523;28;20183;-78
2022/01/03 02:48:39;;;;;;;0.67;0.50;;;;;;;5.66;100.00;95978.56;10518759;28;20236;-78
2022/01/03 02:53:41;;;;;;;0.87;0.60;;;;;;;5.70;100.00;95998.09;10502162;28;20301;-77
2022/01/03 02:58:41;;;;;;;0.50;0.50;;;;;;;5.60;100.00;95997.31;10518035;28;20274;-77
2022/01/03 03:03:42;;;;;;;0.50;0.50;;;;;;;5.61;100.00;95988.56;10518760;28;20189;-77
2022/01/03 03:08:42;;;;;;;0.83;0.83;;;;;;;5.68;100.00;95974.06;10536833;28;20213;-78
2022/01/03 03:13:43;;;;;;;1.80;0.80;;;;;;;5.67;100.00;95963.81;10500712;28;20218;-79
2022/01/03 03:18:44;;;;;;;1.80;0.87;;;;;;;5.70;100.00;95985.13;10518588;28;20186;-79
2022/01/03 03:23:45;;;;;;;3.37;0.90;;;;;;;5.76;100.00;95957.75;10517501;28;20538;-79
2022/01/03 03:28:45;;;;;;;1.97;0.67;;;;;;;5.78;100.00;95963.59;10518025;28;20200;-79
2022/01/03 03:33:46;;;;;;;2.97;1.00;;;;;;;5.78;100.00;95960.19;10500915;28;20280;-79
2022/01/03 03:38:47;;;;;;;1.53;0.80;;;;;;;5.86;100.00;95955.88;10543731;28;20226;-79
2022/01/03 03:43:51;;;;;;;1.53;0.70;;;;;;;5.99;100.00;95960.78;10514882;28;20190;-79
2022/01/03 03:48:52;;;;;;;1.43;0.70;;;;;;;6.09;100.00;95952.09;10531066;28;20185;-79
2022/01/03 03:53:56;;;;;;;1.40;0.90;;;;;;;6.16;100.00;95942.75;10549370;28;20202;-78
2022/01/03 03:58:59;;;;;;;0.80;0.80;;;;;;;6.14;100.00;95936.84;10514620;28;20292;-79
2022/01/03 04:04:00;;;;;;;1.57;0.77;;;;;;;6.11;100.00;95921.56;10527453;28;20239;-79
2022/01/03 04:09:01;;;;;;;0.67;0.67;;;;;;;6.16;100.00;95927.94;10524228;28;20741;-79
2022/01/03 04:14:03;;;;;;;1.90;0.90;;;;;;;6.27;100.00;95941.72;10523331;28;20626;-78
2022/01/03 04:19:04;;;;;;;2.30;0.70;;;;;;;6.30;100.00;95944.81;10523712;28;20178;-77
2022/01/03 04:24:09;;;;;;;1.00;0.90;;;;;;;6.71;100.00;95952.97;10541789;28;20182;-78
2022/01/03 04:29:10;;;;;;;2.23;0.70;;;;;;;6.52;100.00;95945.31;10541682;28;20187;-77
2022/01/03 04:34:11;;;;;;;1.73;1.00;;;;;;;6.54;100.00;95946.81;10523079;28;20259;-78
2022/01/03 04:39:11;;;;;;;4.13;0.90;;;;;;;6.56;100.00;95962.28;10522560;28;20259;-77
2022/01/03 04:44:12;;;;;;;1.37;1.00;;;;;;;6.65;100.00;95947.56;10506226;28;20244;-77
2022/01/03 04:49:13;;;;;;;2.57;0.90;;;;;;;6.62;100.00;95953.88;10518006;28;20186;-77
2022/01/03 04:54:13;;;;;;;4.00;1.10;;;;;;;6.57;100.00;95963.91;10515007;28;20222;-77
2022/01/03 04:59:13;;;;;;;0.83;0.83;;;;;;;6.69;100.00;95975.75;10515471;28;20187;-77
2022/01/03 05:04:14;;;;;;;0.90;0.70;;;;;;;6.68;100.00;95962.88;10504591;28;20187;-76
2022/01/03 05:09:15;;;;;;;1.90;0.90;;;;;;;6.53;100.00;95966.00;10523490;28;20688;-77
2022/01/03 05:14:16;;;;;;;0.80;0.77;;;;;;;6.64;100.00;95982.34;10540642;28;20583;-77
2022/01/03 05:19:16;;;;;;;1.63;0.83;;;;;;;6.48;100.00;95973.44;10523013;28;20194;-76
2022/01/03 05:24:17;;;;;;;1.57;1.10;;;;;;;6.49;100.00;95982.84;10540397;28;20179;-76
2022/01/03 05:29:18;;;;;;;1.33;1.03;;;;;;;6.50;100.00;95983.69;10522361;28;20182;-76
2022/01/03 05:34:19;;;;;;;2.47;1.30;;;;;;;6.50;100.00;95996.72;10522078;28;20222;-77
2022/01/03 05:39:20;;;;;;;2.80;1.00;;;;;;;6.53;100.00;96006.81;10521545;28;20239;-76
2022/01/03 05:44:21;;;;;;;2.50;1.00;;;;;;;6.56;100.00;96011.72;10504554;28;20190;-77
2022/01/03 05:49:21;;;;;;;6.90;1.27;;;;;;;6.53;100.00;96022.44;10521317;28;20222;-77
2022/01/03 05:54:23;;;;;;;4.73;1.20;;;;;;;6.59;100.00;96016.63;10521227;28;20210;-77
2022/01/03 05:59:24;;;;;;;3.00;1.10;;;;;;;6.54;100.00;96008.44;10521155;28;20797;-77
2022/01/03 06:04:39;;;;;;;3.93;1.30;;;;;;;6.57;100.00;96039.38;10520473;28;20727;-77
2022/01/03 06:09:39;;;;;;;3.50;1.20;;;;;;;6.43;100.00;96033.72;10539030;28;20244;-78
2022/01/03 06:14:40;;;;;;;2.57;1.30;;;;;;;6.39;100.00;96045.38;10520508;28;20243;-77
2022/01/03 06:19:41;;;;;;;3.17;1.30;;;;;;;6.45;100.00;96036.19;10520092;28;20190;-77
2022/01/03 06:24:41;;;;;;;4.63;0.97;;;;;;;6.40;100.00;96054.84;10520508;28;20713;-77
2022/01/03 06:29:42;;;;;;;4.10;1.37;;;;;;;6.43;100.00;96057.16;10519980;28;20194;-77
2022/01/03 06:34:43;;;;;;;3.57;1.20;;;;;;;6.34;100.00;96065.81;10519448;28;20210;-77
2022/01/03 06:39:43;;;;;;;7.27;1.60;;;;;;;6.22;100.00;96072.19;10519175;28;20237;-77
2022/01/03 06:44:46;;;;;;;7.37;1.30;;;;;;;6.21;100.00;96092.16;10518697;28;20559;-76
2022/01/03 06:49:47;;;;;;;3.70;1.20;;;;;;;6.22;100.00;96078.22;10519002;28;20210;-76
2022/01/03 06:54:48;;;;;;;5.40;1.50;;;;;;;6.17;100.00;96077.84;10518783;28;20319;-77
2022/01/03 06:59:48;;;;;;;3.57;1.20;;;;;;;6.11;100.00;96088.81;10536096;28;20206;-77
2022/01/03 07:04:49;;;;;;;8.20;1.60;;;;;;;6.02;100.00;96097.47;10517423;28;20187;-77
2022/01/03 07:09:49;;;;;;;9.03;1.37;;;;;;;6.05;100.00;96107.59;10537043;28;20547;-77
2022/01/03 07:19:56;;;;;;;3.30;1.27;;;;;;;6.10;100.00;96107.97;10512260;28;20183;-77
2022/01/03 07:24:56;;;;;;;4.10;1.50;;;;;;;6.05;100.00;96116.19;10496122;28;20183;-77
2022/01/03 07:29:57;;;;;;;3.90;1.00;;;;;;;5.90;100.00;96121.00;10499293;28;20255;-79
2022/01/03 07:34:57;;;;;;;7.23;1.60;;;;;;;6.00;100.00;96125.38;10500327;28;20223;-77
2022/01/03 07:39:58;;;;;;;8.10;1.50;;;;;;;6.03;100.00;96125.09;10461480;28;20266;-76
2022/01/03 07:44:58;;;;;;;4.30;1.10;;;;;;;6.04;100.00;96122.34;10436268;28;20192;-77
2022/01/03 07:49:58;;;;;;;4.90;1.20;;;;;;;6.02;100.00;96126.06;10454579;28;20202;-77
2022/01/03 07:54:59;;;;;;;5.17;1.43;;;;;;;6.24;100.00;96130.09;10435798;28;20226;-77
2022/01/03 08:00:00;;;;;;;8.17;1.60;;;;;;;6.19;100.00;96124.50;10459680;28;20192;-77
2022/01/03 08:05:00;;;;;;;11.27;1.67;;;;;;;6.25;100.00;96142.13;10492889;28;20206;-77
2022/01/03 08:10:01;;;;;;;6.80;1.40;;;;;;;6.35;100.00;96135.06;10493915;28;20203;-77
2022/01/03 08:15:01;;;;;;;6.67;1.20;;;;;;;6.67;100.00;96120.00;10492410;28;20256;-76
2022/01/03 08:20:03;;;;;;;2.97;1.23;;;;;;;7.09;100.00;96128.06;10494108;28;20203;-75
2022/01/03 08:25:04;;;;;;;5.63;1.20;;;;;;;7.47;100.00;96115.66;10494653;28;20187;-76
2022/01/03 08:30:06;;;;;;;5.83;1.43;;;;;;;7.56;97.46;96116.53;10496571;28;20658;-76
2022/01/03 08:35:09;;;;;;;3.13;1.00;;;;;;;7.29;97.98;96133.94;10479140;28;20213;-76
2022/01/03 08:40:09;;;;;;;4.50;1.50;;;;;;;7.03;98.38;96139.06;10497798;28;20239;-76
2022/01/03 08:45:10;;;;;;;3.70;1.17;;;;;;;7.25;97.68;96134.38;10496588;28;20199;-76
2022/01/03 08:50:11;;;;;;;4.97;1.30;;;;;;;6.95;98.27;96142.41;10499809;28;20210;-76
2022/01/03 08:55:12;;;;;;;7.63;1.73;;;;;;;7.06;98.23;96154.41;10497474;28;20333;-77
2022/01/03 09:00:13;;;;;;;4.00;1.40;;;;;;;6.95;96.91;96158.03;10478434;28;20674;-77
2022/01/03 09:05:13;;;;;;;5.37;1.20;;;;;;;6.98;96.63;96156.91;10493555;28;20794;-76
2022/01/03 09:10:13;;;;;;;7.70;1.63;;;;;;;6.88;96.45;96169.19;10455136;28;20679;-77
2022/01/03 09:15:14;;;;;;;5.60;1.43;;;;;;;7.04;96.18;96163.31;10455651;28;20192;-75
2022/01/03 09:20:15;;;;;;;5.43;1.43;;;;;;;6.97;94.00;96157.91;10455412;28;20188;-75
2022/01/03 09:30:21;;;;;;;7.20;1.57;;;;;;;7.07;92.45;96166.44;10454547;28;20219;-76
2022/01/03 09:35:21;;;;;;;4.90;1.43;;;;;;;7.60;88.84;96132.69;10438317;28;20207;-76
2022/01/03 09:40:22;;;;;;;5.50;1.37;;;;;;;8.32;86.11;96117.59;10475072;28;20725;-75
2022/01/03 09:45:25;;;;;;;5.93;1.40;;;;;;;7.74;85.79;96128.72;10515355;28;20270;-75
2022/01/03 09:50:26;;;;;;;8.67;4.40;;;;;;;7.55;87.95;96163.59;10477764;28;20211;-76
2022/01/03 09:55:27;;;;;;;11.10;5.40;;;;;;;7.93;85.13;96122.47;10508084;28;20341;-75
2022/01/03 10:00:27;;;;;;;2.77;1.10;;;;;;;8.50;84.04;96098.44;10477550;28;20210;-75
2022/01/03 10:05:27;;;;;;;10.37;1.60;;;;;;;8.34;82.46;96107.00;10498256;28;20661;-75
2022/01/03 10:10:28;;;;;;;6.03;1.37;;;;;;;8.55;82.87;96104.81;10489035;28;20234;-75
2022/01/03 10:15:29;;;;;;;7.27;1.63;;;;;;;9.08;80.70;96084.53;10518538;28;20202;-75
2022/01/03 10:20:30;;;;;;;3.77;1.23;;;;;;;9.15;79.34;96063.78;10535130;28;20186;-75
2022/01/03 10:25:32;;;;;;;7.13;1.33;;;;;;;8.82;79.37;96068.16;10535995;28;20194;-75
2022/01/03 10:30:40;;;;;;;6.13;1.30;;;;;;;8.94;79.92;96085.13;10534328;28;20218;-75
2022/01/03 10:35:43;;;;;;;11.00;2.30;;;;;;;8.19;80.56;96088.50;10535426;28;20212;-75
2022/01/03 10:40:43;;;;;;;5.13;1.37;;;;;;;7.75;82.52;96107.69;10517333;28;20227;-75
2022/01/03 10:45:45;;;;;;;6.93;1.57;;;;;;;7.67;83.22;96125.88;10495207;28;20198;-74
2022/01/03 10:50:45;;;;;;;10.10;1.50;;;;;;;7.75;84.21;96123.34;10516563;28;20689;-75
2022/01/03 10:55:46;;;;;;;5.77;1.20;;;;;;;7.96;83.47;96109.94;10535105;28;20194;-75
2022/01/03 11:00:49;;;;;;;6.30;1.10;;;;;;;8.54;82.44;96091.94;10516458;28;20691;-75
2022/01/03 11:05:58;;;;;;;5.60;1.17;;;;;;;8.28;82.31;96084.16;10516948;28;20584;-76
2022/01/03 11:10:59;;;;;;;5.50;1.43;;;;;;;8.26;82.06;96070.44;10515928;28;20653;-74
2022/01/03 11:16:00;;;;;;;5.83;1.60;;;;;;;7.89;83.30;96102.88;10475304;28;20230;-74
2022/01/03 11:21:00;;;;;;;5.33;1.30;;;;;;;8.29;82.50;96068.34;10497927;28;20193;-74
2022/01/03 11:26:12;;;;;;;2.97;1.30;;;;;;;8.44;81.84;96063.34;10533230;28;20194;-74
2022/01/03 11:31:14;;;;;;;6.73;1.57;;;;;;;8.25;81.51;96045.31;10534364;28;20317;-74
2022/01/03 11:36:17;;;;;;;7.33;1.50;;;;;;;8.12;81.87;96038.75;10503891;28;20751;-74
2022/01/03 11:41:18;;;;;;;4.87;1.30;;;;;;;8.52;79.79;96005.94;10515451;28;20569;-74
2022/01/03 11:46:18;;;;;;;4.37;1.40;;;;;;;8.35;79.14;96005.06;10515191;28;20194;-74
2022/01/03 11:51:19;;;;;;;3.53;1.20;;;;;;;8.32;79.17;96012.41;10533440;28;20241;-75
2022/01/03 11:56:22;;;;;;;5.50;1.20;;;;;;;8.00;79.55;96012.13;10515080;28;20186;-74
2022/01/03 12:06:45;;;;;;;5.30;1.13;;;;;;;8.16;80.17;96013.16;10498770;28;20182;-74
2022/01/03 12:11:53;;;;;;;9.20;1.57;;;;;;;7.90;80.96;96031.50;10499346;28;20214;-74
2022/01/03 12:16:54;;;;;;;5.63;1.13;;;;;;;7.90;80.37;96015.84;10520107;28;20183;-74
2022/01/03 12:21:57;;;;;;;12.97;2.10;;;;;;;7.66;81.96;96026.00;10514067;28;20207;-74
2022/01/03 12:27:12;;;;;;;4.03;1.10;;;;;;;7.93;82.58;96021.59;10498060;28;20215;-75
2022/01/03 12:32:13;;;;;;;5.90;1.60;;;;;;;7.77;82.50;96017.09;10505995;28;20626;-75
2022/01/03 12:37:21;;;;;;;7.63;1.30;;;;;;;7.71;82.23;96002.09;10539394;28;20341;-74
2022/01/03 12:42:53;;;;;;;6.07;1.40;;;;;;;7.75;81.96;95998.19;10540406;28;20186;-75
2022/01/03 12:47:55;;;;;;;4.40;1.50;;;;;;;7.82;83.02;96021.84;10521662;28;20202;-75
2022/01/03 12:52:58;;;;;;;6.27;1.30;;;;;;;7.63;83.74;96025.50;10504239;28;20676;-74
2022/01/03 12:57:58;;;;;;;4.67;1.27;;;;;;;7.60;84.41;96010.19;10539615;28;20210;-74
2022/01/03 13:03:28;;;;;;;5.13;1.00;;;;;;;7.63;85.64;96026.31;10538748;28;20674;-74
2022/01/03 13:08:28;;;;;;;7.13;2.33;;;;;;;7.55;85.29;96012.41;10539214;28;20195;-74
2022/01/03 13:13:28;;;;;;;5.73;1.87;;;;;;;7.56;85.93;96011.47;10519582;28;20275;-74
2022/01/03 13:18:29;;;;;;;7.17;1.80;;;;;;;7.64;86.24;96007.13;10514920;28;20176;-74
2022/01/03 13:23:29;;;;;;;4.30;1.10;;;;;;;7.73;85.69;95991.50;10517836;28;20259;-74
2022/01/03 13:28:29;;;;;;;6.07;1.27;;;;;;;7.57;87.91;96010.50;10501136;28;20231;-75
2022/01/03 13:33:30;;;;;;;5.67;1.20;;;;;;;7.32;91.33;96041.63;10483915;28;20643;-75
2022/01/03 13:38:31;;;;;;;5.90;1.50;;;;;;;7.35;94.19;96017.03;10495944;28;20738;-75
2022/01/03 13:43:32;;;;;;;8.53;1.67;;;;;;;7.15;98.23;96022.44;10496280;28;20203;-75
2022/01/03 13:53:55;;;;;;;4.73;1.23;;;;;;;7.21;100.00;96008.00;10521085;28;20765;-75
2022/01/03 13:58:55;;;;;;;3.33;1.30;;;;;;;7.19;100.00;95996.91;10537614;28;20182;-74
2022/01/03 14:03:56;;;;;;;2.30;1.00;;;;;;;7.28;99.61;95989.00;10519273;28;20193;-74
2022/01/03 14:08:56;;;;;;;4.57;1.60;;;;;;;7.42;98.05;95987.59;10514469;28;20179;-74
2022/01/03 14:14:07;;;;;;;2.43;1.10;;;;;;;7.38;97.39;95972.44;10493945;28;20268;-74
2022/01/03 14:19:10;;;;;;;2.23;1.17;;;;;;;7.41;96.70;95953.88;10512061;28;20249;-75
2022/01/03 14:24:11;;;;;;;4.93;1.63;;;;;;;7.36;96.98;95954.34;10510993;28;20182;-74
2022/01/03 14:29:13;;;;;;;3.23;1.20;;;;;;;7.35;97.60;95950.13;10511651;28;20210;-74
2022/01/03 14:34:18;;;;;;;4.23;1.40;;;;;;;7.34;96.32;95948.47;10511713;28;20265;-75
2022/01/03 14:39:19;;;;;;;3.43;1.40;;;;;;;7.38;94.60;95942.00;10491918;28;20234;-74
2022/01/03 14:44:23;;;;;;;3.00;1.30;;;;;;;7.32;95.83;95950.44;10495619;28;20241;-74
2022/01/03 14:49:23;;;;;;;7.70;2.00;;;;;;;7.19;96.19;95940.41;10507151;28;20828;-74
2022/01/03 14:54:28;;;;;;;5.17;1.67;;;;;;;7.09;98.65;95958.78;10530342;28;20265;-76
2022/01/03 14:59:30;;;;;;;4.97;1.13;;;;;;;7.08;100.00;95951.91;10511400;28;20190;-75
2022/01/03 15:04:30;;;;;;;4.37;1.03;;;;;;;7.02;100.00;95936.09;10510242;28;20187;-75
2022/01/03 15:09:31;;;;;;;4.33;1.20;;;;;;;7.01;100.00;95937.88;10514575;28;20198;-75
2022/01/03 15:14:31;;;;;;;7.83;1.80;;;;;;;7.01;100.00;95934.44;10509256;28;20215;-75
2022/01/03 15:19:31;;;;;;;4.93;1.57;;;;;;;6.96;100.00;95909.69;10509218;28;20199;-75
2022/01/03 15:24:32;;;;;;;4.97;1.90;;;;;;;7.02;100.00;95931.69;10491620;28;20249;-75
2022/01/03 15:29:34;;;;;;;16.53;5.20;;;;;;;7.07;100.00;95929.44;10513381;28;20182;-74
2022/01/03 15:34:35;;;;;;;5.63;2.07;;;;;;;7.00;100.00;95922.41;10490108;28;20698;-75
2022/01/03 15:39:37;;;;;;;9.03;3.57;;;;;;;6.96;100.00;95920.09;10490808;28;20234;-75
2022/01/03 15:44:38;;;;;;;3.50;1.30;;;;;;;6.85;100.00;95914.34;10513212;28;20194;-75
2022/01/03 15:49:39;;;;;;;6.17;1.57;;;;;;;6.97;100.00;95900.91;10517484;28;20273;-76
2022/01/03 15:54:39;;;;;;;3.00;1.57;;;;;;;7.04;100.00;95900.28;10534732;28;20210;-76
2022/01/03 15:59:40;;;;;;;15.00;5.63;;;;;;;7.02;100.00;95891.81;10534664;28;20233;-75
2022/01/03 16:04:40;;;;;;;7.47;2.37;;;;;;;7.08;100.00;95897.22;10500677;28;20199;-76
2022/01/03 16:09:40;;;;;;;3.67;2.03;;;;;;;6.92;100.00;95897.13;10491061;28;20210;-75
2022/01/03 16:14:41;;;;;;;5.93;2.00;;;;;;;6.97;100.00;95890.50;10510861;28;20219;-76
2022/01/03 16:19:41;;;;;;;4.83;1.50;;;;;;;7.02;100.00;95884.81;10508048;28;20203;-75
2022/01/03 16:24:41;;;;;;;7.97;1.53;;;;;;;7.07;100.00;95889.56;10490604;28;20215;-75
2022/01/03 16:29:42;;;;;;;5.97;1.80;;;;;;;7.05;100.00;95889.72;10489688;28;20195;-76
2022/01/03 16:34:42;;;;;;;8.10;1.60;;;;;;;6.89;100.00;95898.28;10518964;28;20211;-75
2022/01/03 16:39:42;;;;;;;11.47;2.30;;;;;;;6.97;100.00;95897.50;10496325;28;20236;-75
2022/01/03 16:44:43;;;;;;;6.10;1.30;;;;;;;6.91;100.00;95885.09;10492329;28;20277;-76
2022/01/03 16:49:43;;;;;;;4.53;1.50;;;;;;;6.92;100.00;95897.13;10489656;28;20187;-75
2022/01/03 16:54:44;;;;;;;2.80;1.40;;;;;;;6.87;100.00;95881.16;10474802;28;20725;-75
2022/01/03 16:59:44;;;;;;;2.83;1.20;;;;;;;6.91;100.00;95874.69;10472534;28;20498;-75
2022/01/03 17:04:44;;;;;;;3.97;1.40;;;;;;;6.91;100.00;95851.25;10475060;28;20188;-75
2022/01/03 17:09:45;;;;;;;3.27;1.43;;;;;;;6.84;100.00;95853.63;10473861;28;20196;-75
2022/01/03 17:14:45;;;;;;;2.37;1.63;;;;;;;6.80;100.00;95849.72;10470111;28;20298;-75
2022/01/03 17:19:46;;;;;;;9.90;1.63;;;;;;;6.78;100.00;95862.91;10477422;28;20215;-74
2022/01/03 17:24:46;;;;;;;6.03;2.60;;;;;;;6.91;100.00;95864.28;10496220;28;20213;-75
2022/01/03 17:29:47;;;;;;;6.17;3.20;;;;;;;6.85;100.00;95860.47;10496907;28;20201;-75
2022/01/03 17:34:47;;;;;;;7.43;3.50;;;;;;;6.91;100.00;95859.88;10497242;28;20215;-76
2022/01/03 17:39:48;;;;;;;6.20;3.23;;;;;;;6.91;100.00;95854.66;10529123;28;20234;-76
2022/01/03 17:44:49;;;;;;;5.80;2.20;;;;;;;6.93;100.00;95850.09;10538730;28;20197;-76
2022/01/03 17:49:49;;;;;;;5.07;2.00;;;;;;;6.86;100.00;95835.25;10538183;28;20724;-75
2022/01/03 17:54:50;;;;;;;3.27;1.43;;;;;;;6.70;100.00;95847.22;10528668;28;20215;-75
2022/01/03 17:59:50;;;;;;;4.33;1.80;;;;;;;6.68;100.00;95849.16;10516761;28;20270;-75
2022/01/03 18:04:51;;;;;;;8.27;2.00;;;;;;;6.76;100.00;95845.78;10518131;28;20210;-74
2022/01/03 18:09:52;;;;;;;4.37;2.13;;;;;;;6.81;100.00;95824.50;10495366;28;20698;-76
2022/01/03 18:14:52;;;;;;;16.10;6.30;;;;;;;6.77;100.00;95805.78;10517093;28;20210;-75
2022/01/03 18:19:52;;;;;;;13.70;4.40;;;;;;;6.77;100.00;95803.19;10532109;28;20194;-75
2022/01/03 18:24:53;;;;;;;3.20;1.37;;;;;;;6.75;100.00;95807.72;10536215;28;20317;-76
2022/01/03 18:29:53;;;;;;;3.30;1.40;;;;;;;6.73;100.00;95800.06;10535982;28;20202;-75
2022/01/03 18:34:54;;;;;;;4.97;1.90;;;;;;;6.62;100.00;95795.13;10536293;28;20240;-75
2022/01/03 18:39:54;;;;;;;3.40;1.60;;;;;;;6.62;100.00;95776.09;10537043;28;20234;-75
2022/01/03 18:44:54;;;;;;;4.07;1.10;;;;;;;6.56;100.00;95767.13;10537268;28;20190;-75
2022/01/03 18:49:55;;;;;;;4.00;1.40;;;;;;;6.52;100.00;95774.41;10537049;28;20209;-75
2022/01/03 18:54:55;;;;;;;3.17;1.47;;;;;;;6.58;100.00;95780.78;10536103;28;20218;-75
2022/01/03 18:59:56;;;;;;;3.70;1.30;;;;;;;6.59;100.00;95766.81;10536417;28;20669;-76
2022/01/03 19:04:56;;;;;;;3.47;0.93;;;;;;;6.56;100.00;95783.53;10536446;28;20666;-75
2022/01/03 19:09:57;;;;;;;4.30;1.30;;;;;;;6.51;100.00;95777.16;10534855;28;20191;-75
2022/01/03 19:14:58;;;;;;;3.97;1.20;;;;;;;6.39;100.00;95768.81;10536430;28;20222;-75
2022/01/03 19:19:59;;;;;;;6.07;1.23;;;;;;;6.20;100.00;95775.03;10535612;28;20197;-75
2022/01/03 19:25:00;;;;;;;2.83;1.00;;;;;;;6.01;100.00;95774.25;10535231;28;20244;-76
2022/01/03 19:30:00;;;;;;;3.80;1.20;;;;;;;5.86;100.00;95758.34;10535382;28;20187;-76
2022/01/03 19:40:23;;;;;;;4.17;1.80;;;;;;;5.73;100.00;95760.53;10533761;28;20700;-75
2022/01/03 19:45:24;;;;;;;3.40;1.30;;;;;;;5.67;100.00;95741.16;10534169;28;20197;-75
2022/01/03 19:50:26;;;;;;;1.53;1.20;;;;;;;5.57;100.00;95752.59;10533480;28;20190;-75
2022/01/03 19:55:26;;;;;;;4.30;1.10;;;;;;;5.61;100.00;95743.53;10514111;28;20211;-75
2022/01/03 20:00:26;;;;;;;5.60;1.40;;;;;;;5.48;100.00;95743.91;10492330;28;20199;-75
2022/01/03 20:05:29;;;;;;;1.03;0.90;;;;;;;5.36;100.00;95751.94;10491392;28;20191;-76
2022/01/03 20:10:29;;;;;;;3.23;1.50;;;;;;;5.36;100.00;95753.72;10474346;28;20191;-76
2022/01/03 20:15:30;;;;;;;2.47;1.00;;;;;;;5.35;100.00;95747.69;10473714;28;20241;-77
2022/01/03 20:20:33;;;;;;;5.03;1.10;;;;;;;5.24;100.00;95734.94;10477401;28;20193;-77
2022/01/03 20:25:35;;;;;;;4.03;1.20;;;;;;;5.20;100.00;95743.97;10498911;28;20198;-77
2022/01/03 20:30:36;;;;;;;2.10;0.97;;;;;;;5.20;100.00;95730.19;10499252;28;20275;-77
2022/01/03 20:35:36;;;;;;;3.67;1.00;;;;;;;5.06;100.00;95732.31;10481006;28;20278;-78
2022/01/03 20:40:37;;;;;;;0.70;0.70;;;;;;;4.97;100.00;95736.59;10459497;28;20731;-77
2022/01/03 20:45:38;;;;;;;1.33;0.90;;;;;;;4.96;100.00;95722.00;10457699;28;20207;-76
2022/01/03 20:50:38;;;;;;;1.07;0.60;;;;;;;4.93;100.00;95711.91;10456593;28;20196;-76
2022/01/03 20:55:39;;;;;;;0.97;0.60;;;;;;;4.93;100.00;95706.72;10456033;28;20188;-76
2022/01/03 21:00:40;;;;;;;1.70;0.87;;;;;;;4.95;100.00;95701.38;10459659;28;20195;-76
2022/01/03 21:05:41;;;;;;;1.43;0.80;;;;;;;4.79;100.00;95689.03;10478252;28;20200;-76
2022/01/03 21:10:42;;;;;;;0.80;0.80;;;;;;;4.73;100.00;95685.25;10475467;28;20785;-76
2022/01/03 21:15:43;;;;;;;0.97;0.87;;;;;;;4.90;100.00;95690.59;10475249;28;20196;-76
2022/01/03 21:20:43;;;;;;;1.40;0.80;;;;;;;4.89;100.00;95676.81;10477681;28;20191;-76
2022/01/03 21:25:44;;;;;;;1.63;1.00;;;;;;;4.90;100.00;95675.03;10475161;28;20658;-75
2022/01/03 21:30:44;;;;;;;0.90;0.77;;;;;;;4.85;100.00;95679.84;10470341;28;20686;-76
2022/01/03 21:35:46;;;;;;;1.73;0.97;;;;;;;4.91;100.00;95676.69;10439152;28;20195;-76
2022/01/03 21:40:46;;;;;;;1.80;0.93;;;;;;;4.90;100.00;95682.81;10489234;28;20258;-77
2022/01/03 21:45:47;;;;;;;2.20;0.97;;;;;;;4.91;100.00;95674.09;10475872;28;20678;-77
2022/01/03 21:50:47;;;;;;;1.20;1.10;;;;;;;4.92;100.00;95665.34;10498807;28;20547;-77
2022/01/03 21:55:47;;;;;;;1.03;0.93;;;;;;;4.82;100.00;95653.25;10498493;28;20529;-77
2022/01/03 22:00:48;;;;;;;1.70;1.07;;;;;;;4.88;100.00;95651.81;10498515;28;20553;-78
2022/01/03 22:05:48;;;;;;;3.13;0.97;;;;;;;4.93;100.00;95643.59;10497995;28;20212;-78
2022/01/03 22:10:49;;;;;;;2.20;1.13;;;;;;;4.83;100.00;95636.69;10499205;28;20187;-78
2022/01/03 22:15:49;;;;;;;1.27;1.17;;;;;;;4.81;100.00;95630.84;10498649;28;20229;-78
2022/01/03 22:20:50;;;;;;;2.07;0.90;;;;;;;4.77;100.00;95621.72;10498669;28;20650;-77
2022/01/03 22:25:50;;;;;;;1.33;1.20;;;;;;;4.80;100.00;95605.06;10498244;28;20659;-78
2022/01/03 22:30:50;;;;;;;2.17;1.23;;;;;;;4.71;100.00;95588.59;10497710;28;20663;-77
2022/01/03 22:35:51;;;;;;;3.17;1.40;;;;;;;4.66;100.00;95575.25;10498246;28;20260;-79
2022/01/03 22:40:51;;;;;;;2.33;1.10;;;;;;;4.71;100.00;95569.63;10496013;28;20199;-78
2022/01/03 22:45:51;;;;;;;1.67;1.23;;;;;;;4.64;100.00;95564.22;10497129;28;20203;-78
2022/01/03 22:50:52;;;;;;;2.20;1.40;;;;;;;4.80;100.00;95553.97;10497595;28;20195;-78
2022/01/03 22:55:52;;;;;;;1.47;1.13;;;;;;;4.97;100.00;95554.91;10497637;28;20195;-77
2022/01/03 23:00:53;;;;;;;1.30;1.17;;;;;;;5.21;100.00;95544.84;10496243;28;20180;-77
2022/01/03 23:05:53;;;;;;;1.83;1.20;;;;;;;5.28;100.00;95533.75;10494998;28;20188;-76
2022/01/03 23:10:53;;;;;;;2.37;1.20;;;;;;;5.64;100.00;95525.00;10494933;28;20643;-78
2022/01/03 23:15:54;;;;;;;3.60;1.20;;;;;;;5.74;100.00;95504.09;10494400;28;20187;-76
2022/01/03 23:20:54;;;;;;;2.40;1.30;;;;;;;5.78;100.00;95508.00;10494822;28;20206;-75
2022/01/03 23:25:54;;;;;;;0.93;0.90;;;;;;;5.86;100.00;95495.84;10493904;28;20217;-77
2022/01/03 23:30:55;;;;;;;1.10;1.00;;;;;;;5.85;100.00;95491.63;10494519;28;20738;-78
2022/01/03 23:35:55;;;;;;;3.33;1.07;;;;;;;5.96;100.00;95474.13;10493636;28;20190;-79
2022/01/03 23:40:56;;;;;;;2.03;0.90;;;;;;;6.12;100.00;95466.38;10494760;28;20206;-78
2022/01/03 23:45:56;;;;;;;1.10;0.80;;;;;;;6.09;100.00;95458.09;10493280;28;20590;-79
2022/01/03 23:51:01;;;;;;;2.13;0.80;;;;;;;6.28;100.00;95452.59;10476409;28;20191;-79
2022/01/03 23:56:01;;;;;;;3.90;1.00;;;;;;;6.20;100.00;95442.16;10498376;28;20518;-79
